sensor_id;sensor_type;location;lat;lon;timestamp;pressure;altitude;pressure_sealevel;temperature;humidity
72409;BME280;60402;48.082;11.628;2023-05-17T00:02:32;95420.63;;;8.03;100.00
72409;BME280;60402;48.082;11.628;2023-05-17T00:05:18;95413.47;;;7.98;100.00
72409;BME280;60402;48.082;11.628;2023-05-17T00:08:04;95418.66;;;8.00;100.00
72409;BME280;60402;48.082;11.628;2023-05-17T00:10:50;95404.25;;;7.74;100.00
72409;BME280;60402;48.082;11.628;2023-05-17T00:13:35;95447.00;;;8.12;100.00
72409;BME280;60402;48.082;11.628;2023-05-17T00:16:22;95434.75;;;7.99;100.00
72409;BME280;60402;48.082;11.628;2023-05-17T00:19:08;95446.34;;;8.05;100.00
72409;BME280;60402;48.082;11.628;2023-05-17T00:21:53;95452.88;;;7.98;100.00
72409;BME280;60402;48.082;11.628;2023-05-17T00:24:39;95425.41;;;7.82;100.00
72409;BME280;60402;48.082;11.628;2023-05-17T00:27:25;95451.34;;;7.93;100.00
72409;BME280;60402;48.082;11.628;2023-05-17T00:30:11;95450.19;;;7.91;100.00
72409;BME280;60402;48.082;11.628;2023-05-17T00:32:56;95435.25;;;7.71;100.00
72409;BME280;60402;48.082;11.628;2023-05-17T00:35:42;95452.38;;;7.80;100.00
72409;BME280;60402;48.082;11.628;2023-05-17T00:38:28;95437.22;;;7.74;100.00
72409;BME280;60402;48.082;11.628;2023-05-17T00:41:13;95451.56;;;7.79;100.00
72409;BME280;60402;48.082;11.628;2023-05-17T00:43:59;95448.56;;;7.66;100.00
72409;BME280;60402;48.082;11.628;2023-05-17T00:46:45;95462.78;;;7.83;100.00
72409;BME280;60402;48.082;11.628;2023-05-17T00:49:31;95446.78;;;7.76;100.00
72409;BME280;60402;48.082;11.628;2023-05-17T00:52:17;95446.66;;;7.60;100.00
72409;BME280;60402;48.082;11.628;2023-05-17T00:55:02;95434.81;;;7.49;100.00
72409;BME280;60402;48.082;11.628;2023-05-17T00:57:48;95439.06;;;7.57;100.00
72409;BME280;60402;48.082;11.628;2023-05-17T01:00:34;95455.09;;;7.60;100.00
72409;BME280;60402;48.082;11.628;2023-05-17T01:03:20;95463.84;;;7.65;100.00
72409;BME280;60402;48.082;11.628;2023-05-17T01:06:06;95444.22;;;7.62;100.00
72409;BME280;60402;48.082;11.628;2023-05-17T01:08:52;95471.13;;;7.63;100.00
72409;BME280;60402;48.082;11.628;2023-05-17T01:11:50;95472.69;;;7.67;100.00
72409;BME280;60402;48.082;11.628;2023-05-17T01:21:00;95453.44;;;7.39;100.00
72409;BME280;60402;48.082;11.628;2023-05-17T01:25:09;95456.66;;;7.37;100.00
72409;BME280;60402;48.082;11.628;2023-05-17T01:27:21;95488.41;;;7.61;100.00
72409;BME280;60402;48.082;11.628;2023-05-17T01:30:12;95480.63;;;7.73;100.00
72409;BME280;60402;48.082;11.628;2023-05-17T01:32:59;95490.22;;;7.75;100.00
72409;BME280;60402;48.082;11.628;2023-05-17T01:35:45;95466.03;;;7.54;100.00
72409;BME280;60402;48.082;11.628;2023-05-17T01:38:30;95488.06;;;7.59;100.00
72409;BME280;60402;48.082;11.628;2023-05-17T01:41:36;95479.72;;;7.52;100.00
72409;BME280;60402;48.082;11.628;2023-05-17T01:47:23;95497.78;;;7.55;100.00
72409;BME280;60402;48.082;11.628;2023-05-17T01:50:17;95492.84;;;7.62;100.00
72409;BME280;60402;48.082;11.628;2023-05-17T01:53:10;95486.78;;;7.64;100.00
72409;BME280;60402;48.082;11.628;2023-05-17T01:56:07;95508.81;;;7.69;100.00
72409;BME280;60402;48.082;11.628;2023-05-17T01:58:55;95494.13;;;7.58;100.00
72409;BME280;60402;48.082;11.628;2023-05-17T02:01:41;95497.78;;;7.55;100.00
72409;BME280;60402;48.082;11.628;2023-05-17T02:04:29;95484.50;;;7.28;100.00
72409;BME280;60402;48.082;11.628;2023-05-17T02:07:14;95512.19;;;7.57;100.00
72409;BME280;60402;48.082;11.628;2023-05-17T02:10:00;95501.31;;;7.59;100.00
72409;BME280;60402;48.082;11.628;2023-05-17T02:12:46;95494.25;;;7.47;100.00
72409;BME280;60402;48.082;11.628;2023-05-17T02:15:32;95496.44;;;7.36;100.00
72409;BME280;60402;48.082;11.628;2023-05-17T02:18:17;95499.13;;;7.43;100.00
72409;BME280;60402;48.082;11.628;2023-05-17T02:21:06;95502.00;;;7.39;100.00
72409;BME280;60402;48.082;11.628;2023-05-17T02:23:52;95503.44;;;7.51;100.00
72409;BME280;60402;48.082;11.628;2023-05-17T02:26:37;95511.91;;;7.48;100.00
72409;BME280;60402;48.082;11.628;2023-05-17T02:29:27;95506.78;;;7.42;100.00
72409;BME280;60402;48.082;11.628;2023-05-17T02:32:12;95495.31;;;7.30;100.00
72409;BME280;60402;48.082;11.628;2023-05-17T02:34:58;95522.84;;;7.42;100.00
72409;BME280;60402;48.082;11.628;2023-05-17T02:37:44;95492.88;;;7.32;100.00
72409;BME280;60402;48.082;11.628;2023-05-17T02:40:29;95512.34;;;7.46;100.00
72409;BME280;60402;48.082;11.628;2023-05-17T02:43:15;95503.28;;;7.35;100.00
72409;BME280;60402;48.082;11.628;2023-05-17T02:46:01;95506.94;;;7.32;100.00
72409;BME280;60402;48.082;11.628;2023-05-17T02:48:46;95492.59;;;7.23;100.00
72409;BME280;60402;48.082;11.628;2023-05-17T02:51:32;95524.91;;;7.38;100.00
72409;BME280;60402;48.082;11.628;2023-05-17T02:54:17;95517.06;;;7.26;100.00
72409;BME280;60402;48.082;11.628;2023-05-17T02:57:03;95529.22;;;7.46;100.00
72409;BME280;60402;48.082;11.628;2023-05-17T02:59:49;95516.16;;;7.32;100.00
72409;BME280;60402;48.082;11.628;2023-05-17T03:02:35;95537.50;;;7.30;100.00
72409;BME280;60402;48.082;11.628;2023-05-17T03:05:20;95520.97;;;7.32;100.00
72409;BME280;60402;48.082;11.628;2023-05-17T03:08:06;95524.31;;;7.23;100.00
72409;BME280;60402;48.082;11.628;2023-05-17T03:10:52;95546.03;;;7.19;100.00
72409;BME280;60402;48.082;11.628;2023-05-17T03:13:37;95531.66;;;7.13;100.00
72409;BME280;60402;48.082;11.628;2023-05-17T03:16:23;95545.63;;;7.21;100.00
72409;BME280;60402;48.082;11.628;2023-05-17T03:19:09;95542.56;;;7.08;100.00
72409;BME280;60402;48.082;11.628;2023-05-17T03:21:55;95525.09;;;6.93;100.00
72409;BME280;60402;48.082;11.628;2023-05-17T03:24:40;95567.72;;;7.18;100.00
72409;BME280;60402;48.082;11.628;2023-05-17T03:27:26;95574.41;;;7.32;100.00
72409;BME280;60402;48.082;11.628;2023-05-17T03:30:12;95577.84;;;7.12;100.00
72409;BME280;60402;48.082;11.628;2023-05-17T03:32:57;95582.28;;;7.10;100.00
72409;BME280;60402;48.082;11.628;2023-05-17T03:35:43;95569.41;;;7.12;100.00
72409;BME280;60402;48.082;11.628;2023-05-17T03:38:31;95562.69;;;7.06;100.00
72409;BME280;60402;48.082;11.628;2023-05-17T03:41:16;95602.00;;;7.40;100.00
72409;BME280;60402;48.082;11.628;2023-05-17T03:44:02;95574.75;;;7.03;100.00
72409;BME280;60402;48.082;11.628;2023-05-17T03:46:48;95589.97;;;7.06;100.00
72409;BME280;60402;48.082;11.628;2023-05-17T03:49:33;95585.09;;;7.10;100.00
72409;BME280;60402;48.082;11.628;2023-05-17T03:52:19;95582.84;;;6.98;100.00
72409;BME280;60402;48.082;11.628;2023-05-17T03:55:05;95613.59;;;7.12;100.00
72409;BME280;60402;48.082;11.628;2023-05-17T03:57:50;95621.56;;;7.17;100.00
72409;BME280;60402;48.082;11.628;2023-05-17T04:00:36;95570.50;;;6.88;100.00
72409;BME280;60402;48.082;11.628;2023-05-17T04:03:22;95619.56;;;7.14;100.00
72409;BME280;60402;48.082;11.628;2023-05-17T04:06:07;95633.63;;;7.14;100.00
72409;BME280;60402;48.082;11.628;2023-05-17T04:08:53;95604.06;;;7.02;100.00
72409;BME280;60402;48.082;11.628;2023-05-17T04:11:40;95614.03;;;7.07;100.00
72409;BME280;60402;48.082;11.628;2023-05-17T04:14:26;95610.03;;;7.04;100.00
72409;BME280;60402;48.082;11.628;2023-05-17T04:17:11;95600.25;;;6.82;100.00
72409;BME280;60402;48.082;11.628;2023-05-17T04:19:57;95588.28;;;6.78;100.00
72409;BME280;60402;48.082;11.628;2023-05-17T04:22:43;95642.63;;;6.98;100.00
72409;BME280;60402;48.082;11.628;2023-05-17T04:25:28;95639.94;;;6.87;100.00
72409;BME280;60402;48.082;11.628;2023-05-17T04:28:14;95629.50;;;6.88;100.00
72409;BME280;60402;48.082;11.628;2023-05-17T04:30:59;95635.06;;;6.91;100.00
72409;BME280;60402;48.082;11.628;2023-05-17T04:33:45;95667.19;;;7.28;100.00
72409;BME280;60402;48.082;11.628;2023-05-17T04:36:31;95660.44;;;7.22;97.76
72409;BME280;60402;48.082;11.628;2023-05-17T04:39:17;95658.44;;;7.19;98.54
72409;BME280;60402;48.082;11.628;2023-05-17T04:42:02;95672.63;;;7.08;100.00
72409;BME280;60402;48.082;11.628;2023-05-17T04:44:48;95665.47;;;7.00;100.00
72409;BME280;60402;48.082;11.628;2023-05-17T04:47:34;95668.59;;;7.09;100.00
72409;BME280;60402;48.082;11.628;2023-05-17T04:50:20;95665.44;;;7.04;100.00
72409;BME280;60402;48.082;11.628;2023-05-17T04:53:05;95668.66;;;7.06;100.00
72409;BME280;60402;48.082;11.628;2023-05-17T04:55:51;95654.25;;;7.00;100.00
72409;BME280;60402;48.082;11.628;2023-05-17T04:58:37;95667.09;;;7.01;98.88
72409;BME280;60402;48.082;11.628;2023-05-17T05:01:23;95662.72;;;6.97;99.41
72409;BME280;60402;48.082;11.628;2023-05-17T05:04:08;95640.19;;;7.00;99.68
72409;BME280;60402;48.082;11.628;2023-05-17T05:06:54;95632.22;;;6.95;100.00
72409;BME280;60402;48.082;11.628;2023-05-17T05:09:39;95679.22;;;7.29;99.38
72409;BME280;60402;48.082;11.628;2023-05-17T05:12:25;95686.63;;;7.15;98.94
72409;BME280;60402;48.082;11.628;2023-05-17T05:15:11;95673.06;;;7.07;99.75
72409;BME280;60402;48.082;11.628;2023-05-17T05:17:56;95671.88;;;7.01;100.00
72409;BME280;60402;48.082;11.628;2023-05-17T05:20:42;95686.56;;;7.19;99.24
72409;BME280;60402;48.082;11.628;2023-05-17T05:23:28;95689.66;;;7.32;98.89
72409;BME280;60402;48.082;11.628;2023-05-17T05:26:14;95691.28;;;7.29;100.00
72409;BME280;60402;48.082;11.628;2023-05-17T05:28:59;95693.03;;;7.54;100.00
72409;BME280;60402;48.082;11.628;2023-05-17T05:31:45;95680.59;;;7.51;96.83
72409;BME280;60402;48.082;11.628;2023-05-17T05:34:31;95687.78;;;7.52;95.96
72409;BME280;60402;48.082;11.628;2023-05-17T05:37:16;95698.59;;;7.57;96.28
72409;BME280;60402;48.082;11.628;2023-05-17T05:40:04;95698.16;;;7.62;95.39
72409;BME280;60402;48.082;11.628;2023-05-17T05:42:50;95709.00;;;7.60;96.42
72409;BME280;60402;48.082;11.628;2023-05-17T05:45:35;95687.13;;;7.41;95.58
72409;BME280;60402;48.082;11.628;2023-05-17T05:48:21;95696.03;;;7.70;96.27
72409;BME280;60402;48.082;11.628;2023-05-17T05:51:07;95694.25;;;7.83;96.68
72409;BME280;60402;48.082;11.628;2023-05-17T05:53:52;95682.72;;;7.74;94.60
72409;BME280;60402;48.082;11.628;2023-05-17T05:56:38;95682.09;;;7.90;96.21
72409;BME280;60402;48.082;11.628;2023-05-17T05:59:24;95706.69;;;7.86;93.63
72409;BME280;60402;48.082;11.628;2023-05-17T06:02:10;95697.69;;;7.98;93.54
72409;BME280;60402;48.082;11.628;2023-05-17T06:04:56;95683.44;;;7.82;95.16
72409;BME280;60402;48.082;11.628;2023-05-17T06:07:42;95722.03;;;8.12;96.16
72409;BME280;60402;48.082;11.628;2023-05-17T06:10:28;95690.75;;;8.06;93.81
72409;BME280;60402;48.082;11.628;2023-05-17T06:13:13;95695.41;;;8.16;96.03
72409;BME280;60402;48.082;11.628;2023-05-17T06:15:59;95726.19;;;8.61;91.95
72409;BME280;60402;48.082;11.628;2023-05-17T06:18:45;95700.22;;;8.47;94.17
72409;BME280;60402;48.082;11.628;2023-05-17T06:21:31;95732.47;;;8.42;92.57
72409;BME280;60402;48.082;11.628;2023-05-17T06:24:16;95718.97;;;8.30;92.85
72409;BME280;60402;48.082;11.628;2023-05-17T06:27:02;95699.25;;;8.30;91.90
72409;BME280;60402;48.082;11.628;2023-05-17T06:29:48;95736.28;;;8.59;93.17
72409;BME280;60402;48.082;11.628;2023-05-17T06:32:34;95665.91;;;8.28;92.13
72409;BME280;60402;48.082;11.628;2023-05-17T06:35:20;95716.03;;;8.67;90.94
72409;BME280;60402;48.082;11.628;2023-05-17T06:38:05;95686.69;;;8.88;90.56
72409;BME280;60402;48.082;11.628;2023-05-17T06:40:54;95731.72;;;9.39;88.71
72409;BME280;60402;48.082;11.628;2023-05-17T06:43:41;95741.91;;;9.33;89.61
72409;BME280;60402;48.082;11.628;2023-05-17T06:46:27;95725.78;;;9.33;88.69
72409;BME280;60402;48.082;11.628;2023-05-17T06:49:13;95734.19;;;9.37;88.18
72409;BME280;60402;48.082;11.628;2023-05-17T06:51:58;95744.09;;;9.45;84.53
72409;BME280;60402;48.082;11.628;2023-05-17T06:54:47;95728.53;;;9.37;86.95
72409;BME280;60402;48.082;11.628;2023-05-17T06:57:34;95728.06;;;9.82;87.76
72409;BME280;60402;48.082;11.628;2023-05-17T07:00:20;95752.69;;;9.81;84.58
72409;BME280;60402;48.082;11.628;2023-05-17T07:03:06;95751.38;;;9.66;85.64
72409;BME280;60402;48.082;11.628;2023-05-17T07:05:52;95745.97;;;9.32;84.32
72409;BME280;60402;48.082;11.628;2023-05-17T07:08:38;95759.56;;;9.60;85.68
72409;BME280;60402;48.082;11.628;2023-05-17T07:11:24;95760.53;;;9.93;84.16
72409;BME280;60402;48.082;11.628;2023-05-17T07:14:10;95745.00;;;9.62;84.93
72409;BME280;60402;48.082;11.628;2023-05-17T07:16:56;95751.09;;;9.60;85.07
72409;BME280;60402;48.082;11.628;2023-05-17T07:19:42;95716.06;;;9.58;84.57
72409;BME280;60402;48.082;11.628;2023-05-17T07:22:27;95740.94;;;9.63;84.98
72409;BME280;60402;48.082;11.628;2023-05-17T07:25:13;95763.47;;;10.06;81.58
72409;BME280;60402;48.082;11.628;2023-05-17T07:28:00;95746.69;;;9.79;78.93
72409;BME280;60402;48.082;11.628;2023-05-17T07:30:45;95777.25;;;10.04;75.60
72409;BME280;60402;48.082;11.628;2023-05-17T07:33:31;95773.94;;;10.29;77.43
72409;BME280;60402;48.082;11.628;2023-05-17T07:36:17;95760.38;;;10.40;75.12
72409;BME280;60402;48.082;11.628;2023-05-17T07:39:03;95767.72;;;10.74;74.93
72409;BME280;60402;48.082;11.628;2023-05-17T07:41:49;95774.75;;;11.35;71.07
72409;BME280;60402;48.082;11.628;2023-05-17T07:44:35;95729.66;;;11.11;69.57
72409;BME280;60402;48.082;11.628;2023-05-17T07:47:20;95730.47;;;12.02;69.19
72409;BME280;60402;48.082;11.628;2023-05-17T07:50:06;95744.47;;;13.15;64.66
72409;BME280;60402;48.082;11.628;2023-05-17T07:52:52;95761.59;;;12.86;61.60
72409;BME280;60402;48.082;11.628;2023-05-17T07:55:38;95752.44;;;11.98;62.88
72409;BME280;60402;48.082;11.628;2023-05-17T07:58:23;95777.53;;;11.67;64.46
72409;BME280;60402;48.082;11.628;2023-05-17T08:01:09;95767.66;;;12.34;63.76
72409;BME280;60402;48.082;11.628;2023-05-17T08:03:55;95772.50;;;13.00;60.61
72409;BME280;60402;48.082;11.628;2023-05-17T08:06:42;95792.06;;;13.37;60.49
72409;BME280;60402;48.082;11.628;2023-05-17T08:09:29;95775.00;;;13.11;57.50
72409;BME280;60402;48.082;11.628;2023-05-17T08:12:15;95774.53;;;14.86;54.48
72409;BME280;60402;48.082;11.628;2023-05-17T08:15:01;95797.19;;;15.21;52.94
72409;BME280;60402;48.082;11.628;2023-05-17T08:17:47;95792.53;;;16.22;52.17
72409;BME280;60402;48.082;11.628;2023-05-17T08:20:33;95793.47;;;16.56;49.88
72409;BME280;60402;48.082;11.628;2023-05-17T08:23:18;95776.22;;;16.23;49.06
72409;BME280;60402;48.082;11.628;2023-05-17T08:26:04;95708.28;;;14.76;52.30
72409;BME280;60402;48.082;11.628;2023-05-17T08:28:50;95782.22;;;14.76;53.76
72409;BME280;60402;48.082;11.628;2023-05-17T08:31:35;95728.75;;;14.18;55.99
72409;BME280;60402;48.082;11.628;2023-05-17T08:34:21;95768.56;;;13.84;53.08
72409;BME280;60402;48.082;11.628;2023-05-17T08:37:07;95792.16;;;13.93;55.32
72409;BME280;60402;48.082;11.628;2023-05-17T08:39:53;95796.38;;;13.28;55.57
72409;BME280;60402;48.082;11.628;2023-05-17T08:42:38;95778.75;;;13.08;56.85
72409;BME280;60402;48.082;11.628;2023-05-17T08:45:25;95786.44;;;13.20;57.43
72409;BME280;60402;48.082;11.628;2023-05-17T08:48:11;95735.16;;;13.15;55.28
72409;BME280;60402;48.082;11.628;2023-05-17T08:50:56;95768.66;;;14.15;54.96
72409;BME280;60402;48.082;11.628;2023-05-17T08:53:42;95792.69;;;13.66;56.92
72409;BME280;60402;48.082;11.628;2023-05-17T08:56:32;95802.28;;;13.94;55.88
72409;BME280;60402;48.082;11.628;2023-05-17T08:59:20;95764.78;;;12.88;57.52
72409;BME280;60402;48.082;11.628;2023-05-17T09:02:06;95801.28;;;13.75;59.39
72409;BME280;60402;48.082;11.628;2023-05-17T09:04:53;95818.44;;;13.72;59.25
72409;BME280;60402;48.082;11.628;2023-05-17T09:07:40;95772.09;;;12.60;57.99
72409;BME280;60402;48.082;11.628;2023-05-17T09:10:26;95810.41;;;13.07;58.69
72409;BME280;60402;48.082;11.628;2023-05-17T09:13:12;95831.06;;;12.94;59.50
72409;BME280;60402;48.082;11.628;2023-05-17T09:15:58;95811.69;;;12.64;59.20
72409;BME280;60402;48.082;11.628;2023-05-17T09:18:52;95785.72;;;12.52;60.76
72409;BME280;60402;48.082;11.628;2023-05-17T09:21:38;95817.19;;;12.42;61.28
72409;BME280;60402;48.082;11.628;2023-05-17T09:24:28;95831.78;;;12.69;62.14
72409;BME280;60402;48.082;11.628;2023-05-17T09:27:17;95832.41;;;13.15;61.07
72409;BME280;60402;48.082;11.628;2023-05-17T09:30:09;95822.22;;;13.56;58.76
72409;BME280;60402;48.082;11.628;2023-05-17T09:32:54;95835.16;;;13.57;61.30
72409;BME280;60402;48.082;11.628;2023-05-17T09:35:41;95830.31;;;13.32;58.25
72409;BME280;60402;48.082;11.628;2023-05-17T09:38:28;95820.53;;;13.46;59.83
72409;BME280;60402;48.082;11.628;2023-05-17T09:41:14;95823.75;;;12.81;60.65
72409;BME280;60402;48.082;11.628;2023-05-17T09:44:06;95819.72;;;11.13;64.77
72409;BME280;60402;48.082;11.628;2023-05-17T09:46:56;95815.91;;;12.30;63.30
72409;BME280;60402;48.082;11.628;2023-05-17T09:49:41;95832.88;;;12.59;61.08
72409;BME280;60402;48.082;11.628;2023-05-17T09:52:27;95836.41;;;13.30;60.19
72409;BME280;60402;48.082;11.628;2023-05-17T09:55:16;95819.94;;;13.00;58.48
72409;BME280;60402;48.082;11.628;2023-05-17T09:58:02;95828.38;;;13.42;58.61
72409;BME280;60402;48.082;11.628;2023-05-17T10:00:52;95829.69;;;12.99;59.29
72409;BME280;60402;48.082;11.628;2023-05-17T10:03:40;95816.09;;;13.45;59.67
72409;BME280;60402;48.082;11.628;2023-05-17T10:06:27;95822.34;;;13.52;57.99
72409;BME280;60402;48.082;11.628;2023-05-17T10:09:15;95825.63;;;13.25;59.07
72409;BME280;60402;48.082;11.628;2023-05-17T10:12:01;95779.66;;;13.05;60.85
72409;BME280;60402;48.082;11.628;2023-05-17T10:14:47;95781.34;;;13.15;59.86
72409;BME280;60402;48.082;11.628;2023-05-17T10:17:33;95786.81;;;13.95;58.92
72409;BME280;60402;48.082;11.628;2023-05-17T10:20:20;95793.56;;;13.76;56.00
72409;BME280;60402;48.082;11.628;2023-05-17T10:23:06;95773.16;;;12.92;59.16
72409;BME280;60402;48.082;11.628;2023-05-17T10:26:01;95807.50;;;14.52;56.94
72409;BME280;60402;48.082;11.628;2023-05-17T10:28:47;95814.31;;;14.20;58.11
72409;BME280;60402;48.082;11.628;2023-05-17T10:31:36;95777.69;;;13.66;58.37
72409;BME280;60402;48.082;11.628;2023-05-17T10:34:24;95782.38;;;13.94;58.51
72409;BME280;60402;48.082;11.628;2023-05-17T10:37:10;95812.09;;;14.50;57.23
72409;BME280;60402;48.082;11.628;2023-05-17T10:39:58;95776.97;;;14.66;56.33
72409;BME280;60402;48.082;11.628;2023-05-17T10:42:54;95802.25;;;15.26;56.85
72409;BME280;60402;48.082;11.628;2023-05-17T10:45:41;95798.59;;;15.16;54.80
72409;BME280;60402;48.082;11.628;2023-05-17T10:48:27;95797.72;;;14.75;54.34
72409;BME280;60402;48.082;11.628;2023-05-17T10:51:19;95814.41;;;14.07;56.54
72409;BME280;60402;48.082;11.628;2023-05-17T10:54:11;95808.22;;;13.74;58.41
72409;BME280;60402;48.082;11.628;2023-05-17T10:57:03;95802.63;;;14.18;56.91
72409;BME280;60402;48.082;11.628;2023-05-17T10:59:59;95779.03;;;13.74;58.06
72409;BME280;60402;48.082;11.628;2023-05-17T11:02:46;95777.91;;;13.59;57.30
72409;BME280;60402;48.082;11.628;2023-05-17T11:05:33;95790.22;;;13.30;58.42
72409;BME280;60402;48.082;11.628;2023-05-17T11:08:18;95800.75;;;13.17;56.74
72409;BME280;60402;48.082;11.628;2023-05-17T11:11:17;95795.63;;;13.63;59.08
72409;BME280;60402;48.082;11.628;2023-05-17T11:14:03;95775.81;;;13.85;57.42
72409;BME280;60402;48.082;11.628;2023-05-17T11:16:55;95770.16;;;13.85;56.96
72409;BME280;60402;48.082;11.628;2023-05-17T11:22:40;95785.69;;;13.93;55.60
72409;BME280;60402;48.082;11.628;2023-05-17T11:25:27;95777.38;;;14.20;53.80
72409;BME280;60402;48.082;11.628;2023-05-17T11:28:19;95779.81;;;14.09;56.40
72409;BME280;60402;48.082;11.628;2023-05-17T11:31:06;95788.44;;;14.18;52.70
72409;BME280;60402;48.082;11.628;2023-05-17T11:33:52;95771.81;;;13.95;54.30
72409;BME280;60402;48.082;11.628;2023-05-17T11:36:52;95774.94;;;13.75;54.45
72409;BME280;60402;48.082;11.628;2023-05-17T11:40:02;95779.06;;;13.48;55.28
72409;BME280;60402;48.082;11.628;2023-05-17T11:42:49;95783.59;;;13.08;56.33
72409;BME280;60402;48.082;11.628;2023-05-17T11:45:49;95778.94;;;12.88;55.93
72409;BME280;60402;48.082;11.628;2023-05-17T11:48:35;95792.91;;;12.83;57.60
72409;BME280;60402;48.082;11.628;2023-05-17T11:51:21;95793.13;;;12.88;56.75
72409;BME280;60402;48.082;11.628;2023-05-17T11:54:06;95784.69;;;12.59;53.56
72409;BME280;60402;48.082;11.628;2023-05-17T11:56:53;95795.41;;;12.81;55.35
72409;BME280;60402;48.082;11.628;2023-05-17T11:59:40;95781.44;;;13.12;52.77
72409;BME280;60402;48.082;11.628;2023-05-17T12:02:29;95781.69;;;13.04;51.68
72409;BME280;60402;48.082;11.628;2023-05-17T12:05:19;95775.22;;;13.17;54.06
72409;BME280;60402;48.082;11.628;2023-05-17T12:08:04;95782.81;;;13.58;52.39
72409;BME280;60402;48.082;11.628;2023-05-17T12:10:51;95764.88;;;13.48;53.57
72409;BME280;60402;48.082;11.628;2023-05-17T12:13:37;95767.53;;;13.77;50.65
72409;BME280;60402;48.082;11.628;2023-05-17T12:16:24;95774.16;;;13.74;51.52
72409;BME280;60402;48.082;11.628;2023-05-17T12:19:18;95773.41;;;13.83;51.78
72409;BME280;60402;48.082;11.628;2023-05-17T12:22:08;95773.31;;;13.87;48.88
72409;BME280;60402;48.082;11.628;2023-05-17T12:24:56;95775.53;;;14.04;51.82
72409;BME280;60402;48.082;11.628;2023-05-17T12:27:42;95774.53;;;14.20;48.04
72409;BME280;60402;48.082;11.628;2023-05-17T12:30:28;95772.38;;;14.46;49.00
72409;BME280;60402;48.082;11.628;2023-05-17T12:33:13;95772.72;;;14.48;48.87
72409;BME280;60402;48.082;11.628;2023-05-17T12:36:01;95771.78;;;14.29;51.68
72409;BME280;60402;48.082;11.628;2023-05-17T12:38:47;95782.28;;;14.42;52.40
72409;BME280;60402;48.082;11.628;2023-05-17T12:41:33;95791.31;;;14.05;48.01
72409;BME280;60402;48.082;11.628;2023-05-17T12:44:20;95790.81;;;13.85;49.21
72409;BME280;60402;48.082;11.628;2023-05-17T12:47:05;95779.84;;;13.62;48.90
72409;BME280;60402;48.082;11.628;2023-05-17T12:49:54;95791.69;;;13.60;48.51
72409;BME280;60402;48.082;11.628;2023-05-17T12:52:40;95793.16;;;13.52;47.59
72409;BME280;60402;48.082;11.628;2023-05-17T12:55:35;95780.22;;;13.98;48.28
72409;BME280;60402;48.082;11.628;2023-05-17T12:58:21;95782.66;;;14.09;49.09
72409;BME280;60402;48.082;11.628;2023-05-17T13:01:06;95788.56;;;13.80;51.72
72409;BME280;60402;48.082;11.628;2023-05-17T13:03:55;95787.59;;;13.96;51.25
72409;BME280;60402;48.082;11.628;2023-05-17T13:06:47;95799.50;;;14.03;53.40
72409;BME280;60402;48.082;11.628;2023-05-17T13:09:44;95800.00;;;14.24;49.91
72409;BME280;60402;48.082;11.628;2023-05-17T13:12:32;95791.59;;;14.20;50.75
72409;BME280;60402;48.082;11.628;2023-05-17T13:15:17;95782.47;;;14.25;48.58
72409;BME280;60402;48.082;11.628;2023-05-17T13:18:11;95777.44;;;14.29;50.42
72409;BME280;60402;48.082;11.628;2023-05-17T13:20:58;95782.41;;;14.38;49.23
72409;BME280;60402;48.082;11.628;2023-05-17T13:23:45;95780.66;;;14.31;47.56
72409;BME280;60402;48.082;11.628;2023-05-17T13:26:31;95772.28;;;14.15;44.53
72409;BME280;60402;48.082;11.628;2023-05-17T13:29:17;95786.00;;;13.95;43.25
72409;BME280;60402;48.082;11.628;2023-05-17T13:32:03;95787.44;;;14.34;43.47
72409;BME280;60402;48.082;11.628;2023-05-17T13:34:49;95778.84;;;14.25;45.92
72409;BME280;60402;48.082;11.628;2023-05-17T13:37:34;95784.41;;;14.72;46.08
72409;BME280;60402;48.082;11.628;2023-05-17T13:40:20;95763.31;;;14.82;48.12
72409;BME280;60402;48.082;11.628;2023-05-17T13:43:06;95773.22;;;14.34;48.36
72409;BME280;60402;48.082;11.628;2023-05-17T13:45:53;95782.81;;;14.27;47.82
72409;BME280;60402;48.082;11.628;2023-05-17T13:48:43;95788.56;;;14.15;49.25
72409;BME280;60402;48.082;11.628;2023-05-17T13:51:29;95786.22;;;14.00;49.93
72409;BME280;60402;48.082;11.628;2023-05-17T13:54:15;95786.22;;;14.57;50.38
72409;BME280;60402;48.082;11.628;2023-05-17T13:57:00;95784.22;;;14.67;48.88
72409;BME280;60402;48.082;11.628;2023-05-17T13:59:46;95768.94;;;14.29;48.03
72409;BME280;60402;48.082;11.628;2023-05-17T14:02:32;95775.69;;;14.45;49.33
72409;BME280;60402;48.082;11.628;2023-05-17T14:05:17;95782.63;;;14.44;49.13
72409;BME280;60402;48.082;11.628;2023-05-17T14:08:03;95796.28;;;13.79;49.10
72409;BME280;60402;48.082;11.628;2023-05-17T14:10:49;95787.63;;;14.18;50.78
72409;BME280;60402;48.082;11.628;2023-05-17T14:13:35;95792.69;;;14.36;48.42
72409;BME280;60402;48.082;11.628;2023-05-17T14:16:20;95774.97;;;14.31;49.07
72409;BME280;60402;48.082;11.628;2023-05-17T14:19:07;95777.72;;;14.44;48.99
72409;BME280;60402;48.082;11.628;2023-05-17T14:21:52;95773.91;;;14.38;48.00
72409;BME280;60402;48.082;11.628;2023-05-17T14:24:38;95774.19;;;14.53;48.54
72409;BME280;60402;48.082;11.628;2023-05-17T14:27:24;95775.94;;;13.81;57.47
72409;BME280;60402;48.082;11.628;2023-05-17T14:30:10;95794.28;;;13.03;65.35
72409;BME280;60402;48.082;11.628;2023-05-17T14:32:55;95768.78;;;13.29;66.21
72409;BME280;60402;48.082;11.628;2023-05-17T14:35:43;95772.03;;;13.40;66.31
72409;BME280;60402;48.082;11.628;2023-05-17T14:38:28;95779.34;;;13.28;68.61
72409;BME280;60402;48.082;11.628;2023-05-17T14:41:14;95774.88;;;12.76;67.58
72409;BME280;60402;48.082;11.628;2023-05-17T14:44:00;95790.84;;;12.83;68.02
72409;BME280;60402;48.082;11.628;2023-05-17T14:46:46;95775.22;;;13.55;65.00
72409;BME280;60402;48.082;11.628;2023-05-17T14:49:31;95768.56;;;13.84;64.26